Time;durP1;ratioP1;P1;durP2;ratioP2;P2;SDS_P1;SDS_P2;PMS_P1;PMS_P2;Temp;Humidity;BMP_temperature;BMP_pressure;BME280_temperature;BME280_humidity;BME280_pressure;Samples;Min_cycle;Max_cycle;Signal;HPM_P1;HPM_P2
2024/02/06 00:01:50;;;;;;;22.42;4.53;;;;;;;;;;5075913;28;20051;-33
2024/02/06 00:04:15;;;;;;;17.35;4.00;;;;;;;;;;5075671;28;20482;-32
2024/02/06 00:06:40;;;;;;;21.15;3.80;;;;;;;;;;5075654;28;20019;-33
2024/02/06 00:09:05;;;;;;;24.77;4.40;;;;;;;;;;5074323;28;20020;-33
2024/02/06 00:11:31;;;;;;;20.53;3.50;;;;;;;;;;5075177;28;20024;-32
2024/02/06 00:13:56;;;;;;;17.27;3.30;;;;;;;;;;5075441;28;20753;-33
2024/02/06 00:16:21;;;;;;;18.00;3.97;;;;;;;;;;5075367;28;20298;-33
2024/02/06 00:18:46;;;;;;;23.87;3.90;;;;;;;;;;5075704;28;20016;-32
2024/02/06 00:21:12;;;;;;;16.43;3.40;;;;;;;;;;5075879;28;20251;-33
2024/02/06 00:23:37;;;;;;;18.33;3.67;;;;;;;;;;5075563;28;20251;-32
2024/02/06 00:26:02;;;;;;;20.38;4.03;;;;;;;;;;5075485;28;20384;-32
2024/02/06 00:28:27;;;;;;;17.65;3.55;;;;;;;;;;5075141;28;20028;-32
2024/02/06 00:30:52;;;;;;;20.20;4.27;;;;;;;;;;5075891;28;20154;-33
2024/02/06 00:33:18;;;;;;;15.37;3.77;;;;;;;;;;5075502;28;20275;-32
2024/02/06 00:35:43;;;;;;;25.63;3.83;;;;;;;;;;5075044;28;20781;-33
2024/02/06 00:38:08;;;;;;;21.65;3.88;;;;;;;;;;5074847;28;20020;-33
2024/02/06 00:40:33;;;;;;;23.67;4.00;;;;;;;;;;5075925;28;20020;-32
2024/02/06 00:42:59;;;;;;;21.73;4.57;;;;;;;;;;5075135;28;20247;-33
2024/02/06 00:45:24;;;;;;;22.08;3.92;;;;;;;;;;5074766;28;20017;-33
2024/02/06 00:47:49;;;;;;;25.50;3.93;;;;;;;;;;5074750;28;20025;-32
2024/02/06 00:50:18;;;;;;;19.65;4.22;;;;;;;;;;5074675;28;20273;-32
2024/02/06 00:52:43;;;;;;;19.17;3.88;;;;;;;;;;5074812;28;20099;-33
2024/02/06 00:55:08;;;;;;;25.52;4.00;;;;;;;;;;5074863;28;20116;-33
2024/02/06 00:57:33;;;;;;;21.35;4.38;;;;;;;;;;5074586;28;20016;-32
2024/02/06 00:59:58;;;;;;;20.63;4.10;;;;;;;;;;5074526;28;20017;-32
2024/02/06 01:02:25;;;;;;;25.73;3.73;;;;;;;;;;5074492;28;20289;-32
2024/02/06 01:04:50;;;;;;;23.77;4.55;;;;;;;;;;5073096;28;20291;-32
2024/02/06 01:07:15;;;;;;;15.95;3.33;;;;;;;;;;5074410;28;20081;-33
2024/02/06 01:09:41;;;;;;;21.52;3.72;;;;;;;;;;5074327;28;20367;-33
2024/02/06 01:12:06;;;;;;;20.07;4.50;;;;;;;;;;5074280;28;20078;-33
2024/02/06 01:14:31;;;;;;;22.60;4.20;;;;;;;;;;5074466;28;20287;-33
2024/02/06 01:16:56;;;;;;;27.47;3.53;;;;;;;;;;5074686;28;20100;-33
2024/02/06 01:19:21;;;;;;;22.50;3.70;;;;;;;;;;5074216;28;20606;-33
2024/02/06 01:21:47;;;;;;;20.50;3.60;;;;;;;;;;5073633;28;20283;-33
2024/02/06 01:24:12;;;;;;;19.83;3.50;;;;;;;;;;5073602;28;20066;-33
2024/02/06 01:26:37;;;;;;;24.20;4.20;;;;;;;;;;5074582;28;20432;-33
2024/02/06 01:29:03;;;;;;;22.67;3.70;;;;;;;;;;5074297;28;20016;-32
2024/02/06 01:31:28;;;;;;;22.08;3.28;;;;;;;;;;5074234;28;20350;-33
2024/02/06 01:33:54;;;;;;;26.27;4.32;;;;;;;;;;5074113;28;20047;-32
2024/02/06 01:36:19;;;;;;;18.67;3.22;;;;;;;;;;5073839;28;20521;-32
2024/02/06 01:38:44;;;;;;;21.25;4.30;;;;;;;;;;5073904;28;20016;-33
2024/02/06 01:41:09;;;;;;;19.60;3.47;;;;;;;;;;5073822;28;20095;-33
2024/02/06 01:43:34;;;;;;;23.50;3.90;;;;;;;;;;5074202;28;20274;-33
2024/02/06 01:46:00;;;;;;;19.10;4.13;;;;;;;;;;5073718;28;20258;-33
2024/02/06 01:48:26;;;;;;;21.17;4.18;;;;;;;;;;5072404;28;20309;-33
2024/02/06 01:50:52;;;;;;;22.05;4.00;;;;;;;;;;5074011;28;20455;-33
2024/02/06 01:53:17;;;;;;;16.40;3.90;;;;;;;;;;5073491;28;20109;-33
2024/02/06 01:55:44;;;;;;;25.05;3.72;;;;;;;;;;5073644;28;20048;-33
2024/02/06 01:58:09;;;;;;;23.05;3.83;;;;;;;;;;5073844;28;20017;-32
2024/02/06 02:00:35;;;;;;;21.00;3.70;;;;;;;;;;5073520;28;20099;-33
2024/02/06 02:03:01;;;;;;;18.00;3.47;;;;;;;;;;5073729;28;20375;-33
2024/02/06 02:05:26;;;;;;;17.10;3.50;;;;;;;;;;5073444;28;20049;-33
2024/02/06 02:07:51;;;;;;;20.23;4.43;;;;;;;;;;5073501;28;20043;-32
2024/02/06 02:10:16;;;;;;;20.30;3.33;;;;;;;;;;5073415;28;20261;-32
2024/02/06 02:12:41;;;;;;;20.52;3.80;;;;;;;;;;5073835;28;20312;-33
2024/02/06 02:15:08;;;;;;;20.45;4.28;;;;;;;;;;5073294;28;20016;-32
2024/02/06 02:17:33;;;;;;;21.80;3.28;;;;;;;;;;5073302;28;20051;-32
2024/02/06 02:19:58;;;;;;;14.00;3.97;;;;;;;;;;5073396;28;20475;-32
2024/02/06 02:22:23;;;;;;;30.57;3.90;;;;;;;;;;5073786;28;20327;-33
2024/02/06 02:24:51;;;;;;;21.63;4.20;;;;;;;;;;5073188;28;20259;-32
2024/02/06 02:27:17;;;;;;;19.55;3.42;;;;;;;;;;5073829;28;20688;-33
2024/02/06 02:29:43;;;;;;;17.55;3.67;;;;;;;;;;5072575;28;20055;-32
2024/02/06 02:32:08;;;;;;;20.65;3.67;;;;;;;;;;5072315;28;20032;-32
2024/02/06 02:34:35;;;;;;;21.77;3.30;;;;;;;;;;5075943;28;20028;-32
2024/02/06 02:37:00;;;;;;;23.90;3.72;;;;;;;;;;5077265;28;20051;-32
2024/02/06 02:39:25;;;;;;;21.05;3.38;;;;;;;;;;5077794;28;20025;-32
2024/02/06 02:41:50;;;;;;;22.20;3.63;;;;;;;;;;5077151;28;20372;-32
2024/02/06 02:44:16;;;;;;;21.17;3.40;;;;;;;;;;5077714;28;20020;-32
2024/02/06 02:46:41;;;;;;;27.15;3.67;;;;;;;;;;5077112;28;20384;-33
2024/02/06 02:49:06;;;;;;;21.80;4.10;;;;;;;;;;5077006;28;20036;-35
2024/02/06 02:51:32;;;;;;;26.58;4.25;;;;;;;;;;5076966;28;20281;-33
2024/02/06 02:53:57;;;;;;;21.08;3.65;;;;;;;;;;5076946;28;20016;-33
2024/02/06 02:56:23;;;;;;;21.03;3.57;;;;;;;;;;5077198;28;20380;-33
2024/02/06 02:58:48;;;;;;;21.48;4.15;;;;;;;;;;5077394;28;20346;-33
2024/02/06 03:01:13;;;;;;;22.45;3.55;;;;;;;;;;5076952;28;20095;-33
2024/02/06 03:03:38;;;;;;;26.93;3.90;;;;;;;;;;5075334;28;20517;-33
2024/02/06 03:06:04;;;;;;;27.07;3.97;;;;;;;;;;5077062;28;20302;-32
2024/02/06 03:08:29;;;;;;;24.02;3.55;;;;;;;;;;5076976;28;20292;-33
2024/02/06 03:10:55;;;;;;;20.70;3.63;;;;;;;;;;5076594;28;20069;-33
2024/02/06 03:13:21;;;;;;;22.60;4.03;;;;;;;;;;5076702;28;20020;-33
2024/02/06 03:15:47;;;;;;;23.05;3.90;;;;;;;;;;5076540;28;20255;-33
2024/02/06 03:18:12;;;;;;;26.95;4.00;;;;;;;;;;5077013;28;20027;-33
2024/02/06 03:20:37;;;;;;;20.73;3.83;;;;;;;;;;5076775;28;20025;-33
2024/02/06 03:23:02;;;;;;;20.03;3.50;;;;;;;;;;5076377;28;20254;-32
2024/02/06 03:25:27;;;;;;;20.45;3.95;;;;;;;;;;5076602;28;20298;-32
2024/02/06 03:27:52;;;;;;;26.40;3.67;;;;;;;;;;5076788;28;20020;-32
2024/02/06 03:30:18;;;;;;;30.50;4.77;;;;;;;;;;5076847;28;20265;-32
2024/02/06 03:32:43;;;;;;;21.50;3.92;;;;;;;;;;5076423;28;20254;-32
2024/02/06 03:35:09;;;;;;;23.67;3.73;;;;;;;;;;5076245;28;20013;-32
2024/02/06 03:37:35;;;;;;;26.50;4.40;;;;;;;;;;5076417;28;20251;-32
2024/02/06 03:40:00;;;;;;;30.27;5.00;;;;;;;;;;5076382;28;20066;-32
2024/02/06 03:42:25;;;;;;;30.80;3.57;;;;;;;;;;5076686;28;20012;-33
2024/02/06 03:44:50;;;;;;;25.02;5.07;;;;;;;;;;5074174;28;20270;-33
2024/02/06 03:47:16;;;;;;;21.97;3.70;;;;;;;;;;5075362;28;20035;-33
2024/02/06 03:49:41;;;;;;;24.58;3.83;;;;;;;;;;5074656;28;20415;-33
2024/02/06 03:52:07;;;;;;;23.90;3.70;;;;;;;;;;5076184;28;20024;-33
2024/02/06 03:54:32;;;;;;;27.27;4.22;;;;;;;;;;5075715;28;20031;-33
2024/02/06 03:56:57;;;;;;;28.53;4.13;;;;;;;;;;5076279;28;20104;-32
2024/02/06 03:59:22;;;;;;;26.80;4.20;;;;;;;;;;5075755;28;20718;-32
2024/02/06 04:01:47;;;;;;;23.80;3.80;;;;;;;;;;5075665;28;20278;-33
2024/02/06 04:04:12;;;;;;;22.07;4.53;;;;;;;;;;5075470;28;20275;-32
2024/02/06 04:06:38;;;;;;;24.73;4.28;;;;;;;;;;5075616;28;20309;-32
2024/02/06 04:09:03;;;;;;;25.15;4.45;;;;;;;;;;5074599;28;20451;-33
2024/02/06 04:11:28;;;;;;;29.83;4.38;;;;;;;;;;5075405;28;20032;-33
2024/02/06 04:13:53;;;;;;;28.38;4.28;;;;;;;;;;5075878;28;20062;-33
2024/02/06 04:16:19;;;;;;;26.80;4.40;;;;;;;;;;5075418;28;20024;-33
2024/02/06 04:18:44;;;;;;;28.40;4.50;;;;;;;;;;5075623;28;20786;-33
2024/02/06 04:21:09;;;;;;;19.48;3.80;;;;;;;;;;5075454;28;20375;-32
2024/02/06 04:23:35;;;;;;;29.07;4.20;;;;;;;;;;5075807;28;20025;-33
2024/02/06 04:26:00;;;;;;;21.83;5.10;;;;;;;;;;5075521;28;20258;-33
2024/02/06 04:28:25;;;;;;;26.13;4.43;;;;;;;;;;5075523;28;20023;-32
2024/02/06 04:30:50;;;;;;;24.30;4.00;;;;;;;;;;5075670;28;20021;-32
2024/02/06 04:33:15;;;;;;;30.13;4.72;;;;;;;;;;5075571;28;20270;-32
2024/02/06 04:35:41;;;;;;;37.67;4.20;;;;;;;;;;5075348;28;20095;-33
2024/02/06 04:38:06;;;;;;;33.25;4.28;;;;;;;;;;5074917;28;20364;-33
2024/02/06 04:40:31;;;;;;;21.08;4.22;;;;;;;;;;5075017;28;20020;-33
2024/02/06 04:42:56;;;;;;;35.78;4.38;;;;;;;;;;5074078;28;20017;-33
2024/02/06 04:45:21;;;;;;;28.80;4.93;;;;;;;;;;5073451;28;20066;-33
2024/02/06 04:47:47;;;;;;;25.13;3.90;;;;;;;;;;5074254;28;20254;-33
2024/02/06 04:50:12;;;;;;;22.98;3.88;;;;;;;;;;5074072;28;20018;-32
2024/02/06 04:52:37;;;;;;;26.42;4.13;;;;;;;;;;5073898;28;20016;-32
2024/02/06 04:55:04;;;;;;;27.83;4.07;;;;;;;;;;5074049;28;20186;-33
2024/02/06 04:57:29;;;;;;;34.47;4.38;;;;;;;;;;5074353;28;20056;-33
2024/02/06 04:59:55;;;;;;;23.63;4.03;;;;;;;;;;5074574;28;20047;-33
2024/02/06 05:02:20;;;;;;;23.30;4.10;;;;;;;;;;5074761;28;20251;-32
2024/02/06 05:04:45;;;;;;;23.97;3.83;;;;;;;;;;5074385;28;20095;-34
2024/02/06 05:07:10;;;;;;;27.50;4.23;;;;;;;;;;5074876;28;20259;-32
2024/02/06 05:09:35;;;;;;;34.13;4.72;;;;;;;;;;5074588;28;20282;-33
2024/02/06 05:12:01;;;;;;;28.83;4.63;;;;;;;;;;5074520;28;20479;-33
2024/02/06 05:14:27;;;;;;;26.30;4.07;;;;;;;;;;5074504;28;20482;-33
2024/02/06 05:16:52;;;;;;;23.15;4.15;;;;;;;;;;5074341;28;20028;-33
2024/02/06 05:19:19;;;;;;;27.02;4.05;;;;;;;;;;5074410;28;20008;-33
2024/02/06 05:21:44;;;;;;;28.10;4.50;;;;;;;;;;5074411;28;20039;-33
2024/02/06 05:24:09;;;;;;;22.93;4.37;;;;;;;;;;5074624;28;20024;-32
2024/02/06 05:26:35;;;;;;;27.92;4.30;;;;;;;;;;5073921;28;20274;-33
2024/02/06 05:29:00;;;;;;;24.23;3.93;;;;;;;;;;5074263;28;20025;-32
2024/02/06 05:31:26;;;;;;;21.83;4.00;;;;;;;;;;5074190;28;20259;-33
2024/02/06 05:33:51;;;;;;;22.83;4.37;;;;;;;;;;5074405;28;20016;-33
2024/02/06 05:36:16;;;;;;;24.55;4.53;;;;;;;;;;5074130;28;20283;-32
2024/02/06 05:38:41;;;;;;;28.43;3.93;;;;;;;;;;5074128;28;20016;-33
2024/02/06 05:41:13;;;;;;;22.60;4.07;;;;;;;;;;5074300;28;20247;-33
2024/02/06 05:43:38;;;;;;;26.70;4.15;;;;;;;;;;5073711;28;20264;-33
2024/02/06 05:46:04;;;;;;;23.55;4.32;;;;;;;;;;5074167;28;20028;-32
2024/02/06 05:48:29;;;;;;;29.40;3.95;;;;;;;;;;5073930;28;20472;-33
2024/02/06 05:50:54;;;;;;;30.92;4.60;;;;;;;;;;5074076;28;20016;-33
2024/02/06 05:53:20;;;;;;;27.25;4.38;;;;;;;;;;5072406;28;20025;-33
2024/02/06 05:55:45;;;;;;;23.85;4.22;;;;;;;;;;5073666;28;20092;-33
2024/02/06 05:58:10;;;;;;;28.45;4.00;;;;;;;;;;5072775;28;20044;-33
2024/02/06 06:00:36;;;;;;;29.65;4.43;;;;;;;;;;5072296;28;20521;-33
2024/02/06 06:03:01;;;;;;;35.92;5.63;;;;;;;;;;5073923;28;20013;-33
2024/02/06 06:05:26;;;;;;;31.80;4.80;;;;;;;;;;5073435;28;20045;-33
2024/02/06 06:07:51;;;;;;;35.47;4.73;;;;;;;;;;5073669;28;20021;-33
2024/02/06 06:10:17;;;;;;;25.65;4.43;;;;;;;;;;5073108;28;20278;-33
2024/02/06 06:12:42;;;;;;;27.80;4.82;;;;;;;;;;5073288;28;20436;-33
2024/02/06 06:15:07;;;;;;;30.33;4.80;;;;;;;;;;5073181;28;20070;-33
2024/02/06 06:17:33;;;;;;;31.88;4.90;;;;;;;;;;5073523;28;20099;-33
2024/02/06 06:19:58;;;;;;;32.38;3.95;;;;;;;;;;5073605;28;20092;-32
2024/02/06 06:22:23;;;;;;;29.50;3.77;;;;;;;;;;5073298;28;20418;-33
2024/02/06 06:24:48;;;;;;;27.55;4.40;;;;;;;;;;5073510;28;20326;-32
2024/02/06 06:27:15;;;;;;;29.00;4.53;;;;;;;;;;5073423;28;20021;-34
2024/02/06 06:29:40;;;;;;;26.58;4.47;;;;;;;;;;5073817;28;20372;-33
2024/02/06 06:32:06;;;;;;;26.80;4.32;;;;;;;;;;5073141;28;20024;-33
2024/02/06 06:34:31;;;;;;;31.13;4.43;;;;;;;;;;5073110;28;20022;-32
2024/02/06 06:36:56;;;;;;;34.38;4.35;;;;;;;;;;5073383;28;20016;-33
2024/02/06 06:39:22;;;;;;;33.63;5.17;;;;;;;;;;5073439;28;20032;-33
2024/02/06 06:41:47;;;;;;;33.73;4.27;;;;;;;;;;5073531;28;20359;-33
2024/02/06 06:44:12;;;;;;;33.78;4.60;;;;;;;;;;5072975;28;20303;-33
2024/02/06 06:46:38;;;;;;;32.50;4.70;;;;;;;;;;5073011;28;20035;-32
2024/02/06 06:49:03;;;;;;;36.42;4.60;;;;;;;;;;5073215;28;20084;-33
2024/02/06 06:51:29;;;;;;;25.98;4.35;;;;;;;;;;5073559;28;20017;-33
2024/02/06 06:53:54;;;;;;;36.97;4.93;;;;;;;;;;5073157;28;20063;-33
2024/02/06 06:56:19;;;;;;;35.03;4.30;;;;;;;;;;5072949;28;20251;-33
2024/02/06 06:58:44;;;;;;;34.07;4.70;;;;;;;;;;5072917;28;20312;-33
2024/02/06 07:01:10;;;;;;;35.92;5.32;;;;;;;;;;5072855;28;20247;-32
2024/02/06 07:03:35;;;;;;;29.10;4.20;;;;;;;;;;5072905;28;20021;-33
2024/02/06 07:06:01;;;;;;;33.20;4.85;;;;;;;;;;5072758;28;20285;-33
2024/02/06 07:08:26;;;;;;;32.28;4.72;;;;;;;;;;5072740;28;20024;-33
2024/02/06 07:10:51;;;;;;;31.20;4.10;;;;;;;;;;5071574;28;20031;-33
2024/02/06 07:13:17;;;;;;;33.87;4.90;;;;;;;;;;5072192;28;20054;-33
2024/02/06 07:15:42;;;;;;;38.33;4.95;;;;;;;;;;5071907;28;20267;-33
2024/02/06 07:18:07;;;;;;;36.93;4.60;;;;;;;;;;5071830;28;20017;-33
2024/02/06 07:20:32;;;;;;;34.27;4.87;;;;;;;;;;5073828;28;20289;-33
2024/02/06 07:22:57;;;;;;;46.00;5.30;;;;;;;;;;5074566;28;20262;-33
2024/02/06 07:25:22;;;;;;;32.07;4.20;;;;;;;;;;5074216;28;20871;-33
2024/02/06 07:27:48;;;;;;;37.47;5.83;;;;;;;;;;5074141;28;20251;-33
2024/02/06 07:30:13;;;;;;;40.42;5.45;;;;;;;;;;5074132;28;20282;-33
2024/02/06 07:32:39;;;;;;;30.52;4.72;;;;;;;;;;5074619;28;20017;-33
2024/02/06 07:35:04;;;;;;;32.60;4.60;;;;;;;;;;5074153;28;20058;-33
2024/02/06 07:37:29;;;;;;;33.90;4.68;;;;;;;;;;5076083;28;20722;-34
2024/02/06 07:39:54;;;;;;;32.83;4.95;;;;;;;;;;5076308;28;20058;-37
2024/02/06 07:42:20;;;;;;;34.57;4.80;;;;;;;;;;5076071;28;20023;-33
2024/02/06 07:44:45;;;;;;;27.53;4.50;;;;;;;;;;5076530;28;20346;-33
2024/02/06 07:47:10;;;;;;;25.27;4.72;;;;;;;;;;5076219;28;20783;-33
2024/02/06 07:49:35;;;;;;;29.47;5.33;;;;;;;;;;5075925;28;20020;-33
2024/02/06 07:52:03;;;;;;;34.15;4.63;;;;;;;;;;5075817;28;20263;-34
2024/02/06 07:54:29;;;;;;;33.80;5.32;;;;;;;;;;5075961;28;20027;-34
2024/02/06 07:56:54;;;;;;;33.03;4.47;;;;;;;;;;5076005;28;20016;-32
2024/02/06 07:59:19;;;;;;;33.20;5.20;;;;;;;;;;5076121;28;20095;-32
2024/02/06 08:01:44;;;;;;;33.83;5.30;;;;;;;;;;5074132;28;20753;-35
2024/02/06 08:04:09;;;;;;;36.40;4.93;;;;;;;;;;5075853;28;20341;-33
2024/02/06 08:06:34;;;;;;;32.90;4.67;;;;;;;;;;5075479;28;20696;-33
2024/02/06 08:09:00;;;;;;;30.43;4.97;;;;;;;;;;5075091;28;20267;-32
2024/02/06 08:11:25;;;;;;;25.85;4.78;;;;;;;;;;5075713;28;20255;-33
2024/02/06 08:13:51;;;;;;;44.90;5.20;;;;;;;;;;5075062;28;20024;-32
2024/02/06 08:16:17;;;;;;;38.67;5.50;;;;;;;;;;5075488;28;20012;-32
2024/02/06 08:18:42;;;;;;;35.28;5.68;;;;;;;;;;5075601;28;20506;-32
2024/02/06 08:21:07;;;;;;;34.13;4.77;;;;;;;;;;5075309;28;20044;-32
2024/02/06 08:23:33;;;;;;;35.83;4.80;;;;;;;;;;5075184;28;20373;-32
2024/02/06 08:25:58;;;;;;;35.97;5.57;;;;;;;;;;5075302;28;20270;-32
2024/02/06 08:28:23;;;;;;;30.38;4.40;;;;;;;;;;5073800;28;20021;-33
2024/02/06 08:30:50;;;;;;;29.50;4.93;;;;;;;;;;5075030;28;20021;-33
2024/02/06 08:33:15;;;;;;;33.88;5.30;;;;;;;;;;5074679;28;20031;-32
2024/02/06 08:35:40;;;;;;;35.42;5.97;;;;;;;;;;5075210;28;20041;-32
2024/02/06 08:38:07;;;;;;;39.45;5.10;;;;;;;;;;5075503;28;20463;-33
2024/02/06 08:40:32;;;;;;;28.95;4.38;;;;;;;;;;5075280;28;20023;-32
2024/02/06 08:42:57;;;;;;;28.35;5.60;;;;;;;;;;5075441;28;20424;-33
2024/02/06 08:45:22;;;;;;;34.80;5.23;;;;;;;;;;5074194;28;20016;-32
2024/02/06 08:47:48;;;;;;;36.50;5.03;;;;;;;;;;5074494;28;20263;-32
2024/02/06 08:50:14;;;;;;;34.13;4.03;;;;;;;;;;5074690;28;20350;-32
2024/02/06 08:52:40;;;;;;;29.45;4.15;;;;;;;;;;5074635;28;20021;-32
2024/02/06 08:55:06;;;;;;;28.00;4.57;;;;;;;;;;5074836;28;20039;-32
2024/02/06 08:57:31;;;;;;;29.73;4.75;;;;;;;;;;5074942;28;20460;-32
2024/02/06 08:59:56;;;;;;;26.87;4.27;;;;;;;;;;5075064;28;20024;-32
2024/02/06 09:02:24;;;;;;;26.87;3.57;;;;;;;;;;5074446;28;20329;-30
2024/02/06 09:04:50;;;;;;;29.98;4.25;;;;;;;;;;5074386;28;20299;-32
2024/02/06 09:07:15;;;;;;;25.02;5.13;;;;;;;;;;5074921;28;20021;-34
2024/02/06 09:09:40;;;;;;;33.13;4.25;;;;;;;;;;5074612;28;20468;-33
2024/02/06 09:12:06;;;;;;;21.77;3.75;;;;;;;;;;5074466;28;20012;-34
2024/02/06 09:14:31;;;;;;;26.25;3.50;;;;;;;;;;5074573;28;20031;-33
2024/02/06 09:16:56;;;;;;;23.40;3.70;;;;;;;;;;5074180;28;20096;-33
2024/02/06 09:19:21;;;;;;;22.50;3.97;;;;;;;;;;5072479;28;20259;-34
2024/02/06 09:21:47;;;;;;;21.10;3.03;;;;;;;;;;5073649;28;20074;-33
2024/02/06 09:24:12;;;;;;;24.27;3.57;;;;;;;;;;5074334;28;20254;-34
2024/02/06 09:26:37;;;;;;;25.33;3.38;;;;;;;;;;5074286;28;20768;-33
2024/02/06 09:29:02;;;;;;;27.43;3.70;;;;;;;;;;5074317;28;20388;-33
2024/02/06 09:31:27;;;;;;;19.87;3.40;;;;;;;;;;5074523;28;20258;-34
2024/02/06 09:33:52;;;;;;;23.70;3.53;;;;;;;;;;5073848;28;20353;-34
2024/02/06 09:36:18;;;;;;;24.17;3.60;;;;;;;;;;5074447;28;20270;-33
2024/02/06 09:38:43;;;;;;;18.93;3.43;;;;;;;;;;5073816;28;20262;-33
2024/02/06 09:41:09;;;;;;;23.00;3.90;;;;;;;;;;5073773;28;20290;-33
2024/02/06 09:43:34;;;;;;;20.65;3.60;;;;;;;;;;5073142;28;20250;-33
2024/02/06 09:46:00;;;;;;;23.38;3.90;;;;;;;;;;5073981;28;20478;-33
2024/02/06 09:48:25;;;;;;;17.42;3.85;;;;;;;;;;5074183;28;20016;-33
2024/02/06 09:50:54;;;;;;;25.93;3.63;;;;;;;;;;5073615;28;20407;-33
2024/02/06 09:53:19;;;;;;;19.40;3.58;;;;;;;;;;5073783;28;20283;-34
2024/02/06 09:55:45;;;;;;;27.48;3.70;;;;;;;;;;5073602;28;20024;-33
2024/02/06 09:58:10;;;;;;;27.88;3.97;;;;;;;;;;5073830;28;20013;-33
2024/02/06 10:00:37;;;;;;;24.20;3.50;;;;;;;;;;5073747;28;20040;-33
2024/02/06 10:03:04;;;;;;;20.85;4.05;;;;;;;;;;5073751;28;20074;-33
2024/02/06 10:05:35;;;;;;;22.58;3.20;;;;;;;;;;5073414;28;20052;-33
2024/02/06 10:08:01;;;;;;;21.92;3.60;;;;;;;;;;5073381;28;20100;-34
2024/02/06 10:10:27;;;;;;;18.02;3.40;;;;;;;;;;5073747;28;20056;-33
2024/02/06 10:12:53;;;;;;;18.25;3.38;;;;;;;;;;5073442;28;20020;-33
2024/02/06 10:15:18;;;;;;;22.70;3.83;;;;;;;;;;5073354;28;20021;-33
2024/02/06 10:17:44;;;;;;;22.58;3.85;;;;;;;;;;5073876;28;20301;-34
2024/02/06 10:20:10;;;;;;;26.00;4.20;;;;;;;;;;5073380;28;20013;-33
2024/02/06 10:22:36;;;;;;;21.52;3.75;;;;;;;;;;5073616;28;20104;-33
2024/02/06 10:25:05;;;;;;;17.67;3.88;;;;;;;;;;5073596;28;20017;-33
2024/02/06 10:27:30;;;;;;;19.23;3.65;;;;;;;;;;5073536;28;20353;-33
2024/02/06 10:29:56;;;;;;;20.27;3.17;;;;;;;;;;5073535;28;20031;-34
2024/02/06 10:32:22;;;;;;;18.98;3.50;;;;;;;;;;5073260;28;20035;-33
2024/02/06 10:34:58;;;;;;;29.97;3.33;;;;;;;;;;5073425;28;20025;-33
2024/02/06 10:37:24;;;;;;;23.73;3.17;;;;;;;;;;5073165;28;20613;-33
2024/02/06 10:39:49;;;;;;;24.73;3.53;;;;;;;;;;5073486;28;20468;-33
2024/02/06 10:42:19;;;;;;;22.10;3.83;;;;;;;;;;5073388;28;20043;-34
2024/02/06 10:44:44;;;;;;;20.30;4.03;;;;;;;;;;5071844;28;20082;-33
2024/02/06 10:47:14;;;;;;;27.85;4.25;;;;;;;;;;5073392;28;20025;-33
2024/02/06 10:49:39;;;;;;;21.13;3.53;;;;;;;;;;5073065;28;20464;-33
2024/02/06 10:52:05;;;;;;;24.63;3.58;;;;;;;;;;5073238;28;20024;-33
2024/02/06 10:54:32;;;;;;;27.13;5.22;;;;;;;;;;5073206;28;20046;-33
2024/02/06 10:57:05;;;;;;;33.40;4.20;;;;;;;;;;5077181;28;20052;-34
2024/02/06 10:59:33;;;;;;;20.20;3.78;;;;;;;;;;5077201;28;20043;-33
2024/02/06 11:01:58;;;;;;;21.20;3.58;;;;;;;;;;5077060;28;20031;-33
2024/02/06 11:04:24;;;;;;;27.88;4.28;;;;;;;;;;5076633;28;20048;-33
2024/02/06 11:06:52;;;;;;;26.65;4.00;;;;;;;;;;5077226;28;20539;-33
2024/02/06 11:09:17;;;;;;;17.30;3.38;;;;;;;;;;5076701;28;20021;-33
2024/02/06 11:11:43;;;;;;;14.48;3.00;;;;;;;;;;5076535;28;20074;-33
2024/02/06 11:14:11;;;;;;;24.95;3.47;;;;;;;;;;5076999;28;20024;-33
2024/02/06 11:16:39;;;;;;;18.95;3.53;;;;;;;;;;5076791;28;20511;-33
2024/02/06 11:19:04;;;;;;;24.85;4.05;;;;;;;;;;5076745;28;20047;-34
2024/02/06 11:21:31;;;;;;;24.58;3.47;;;;;;;;;;5076788;28;20456;-33
2024/02/06 11:23:57;;;;;;;24.60;3.75;;;;;;;;;;5076399;28;20104;-33
2024/02/06 11:26:22;;;;;;;30.88;4.78;;;;;;;;;;5076557;28;20063;-33
2024/02/06 11:28:48;;;;;;;21.40;3.70;;;;;;;;;;5076538;28;20025;-33
2024/02/06 11:31:14;;;;;;;19.58;3.38;;;;;;;;;;5076242;28;20047;-34
2024/02/06 11:33:41;;;;;;;18.35;3.35;;;;;;;;;;5076229;28;20056;-33
2024/02/06 11:36:07;;;;;;;18.30;3.35;;;;;;;;;;5076060;28;20095;-33
2024/02/06 11:38:32;;;;;;;17.95;2.80;;;;;;;;;;5076396;28;20151;-33
2024/02/06 11:41:06;;;;;;;17.67;3.58;;;;;;;;;;5076451;28;20013;-33
2024/02/06 11:43:32;;;;;;;22.45;3.65;;;;;;;;;;5075881;28;20020;-33
2024/02/06 11:46:00;;;;;;;17.40;3.30;;;;;;;;;;5075909;28;20027;-33
2024/02/06 11:48:26;;;;;;;16.50;2.80;;;;;;;;;;5075919;28;20031;-33
2024/02/06 11:50:51;;;;;;;18.20;2.97;;;;;;;;;;5075806;28;20056;-33
2024/02/06 11:53:17;;;;;;;16.03;3.17;;;;;;;;;;5075668;28;20799;-34
2024/02/06 11:55:43;;;;;;;17.27;2.90;;;;;;;;;;5075745;28;20016;-33
2024/02/06 11:58:09;;;;;;;19.50;2.90;;;;;;;;;;5075905;28;20012;-33
2024/02/06 12:00:35;;;;;;;22.20;3.63;;;;;;;;;;5075947;28;20038;-33
2024/02/06 12:03:00;;;;;;;23.98;3.35;;;;;;;;;;5075874;28;20025;-33
2024/02/06 12:05:26;;;;;;;23.35;3.13;;;;;;;;;;5075480;28;20041;-34
2024/02/06 12:07:57;;;;;;;21.92;3.40;;;;;;;;;;5074847;28;20040;-33
2024/02/06 12:10:30;;;;;;;16.73;3.17;;;;;;;;;;5076421;28;20523;-33
2024/02/06 12:12:55;;;;;;;22.60;3.38;;;;;;;;;;5075375;28;20074;-33
2024/02/06 12:15:23;;;;;;;18.98;3.30;;;;;;;;;;5075380;28;20017;-34
2024/02/06 12:17:49;;;;;;;24.08;4.05;;;;;;;;;;5075389;28;20038;-33
2024/02/06 12:20:20;;;;;;;21.65;3.17;;;;;;;;;;5075282;28;20038;-33
2024/02/06 12:23:03;;;;;;;27.35;3.33;;;;;;;;;;5075422;28;20081;-33
2024/02/06 12:25:28;;;;;;;23.23;3.78;;;;;;;;;;5075683;28;20016;-34
2024/02/06 12:28:00;;;;;;;22.30;4.20;;;;;;;;;;5075826;28;20097;-34
2024/02/06 12:30:29;;;;;;;23.07;3.97;;;;;;;;;;5075792;28;20360;-33
2024/02/06 12:32:57;;;;;;;23.48;3.40;;;;;;;;;;5075113;28;20780;-33
2024/02/06 12:35:23;;;;;;;25.77;3.63;;;;;;;;;;5075103;28;20039;-33
2024/02/06 12:37:48;;;;;;;25.38;3.78;;;;;;;;;;5075097;28;20096;-33
2024/02/06 12:40:13;;;;;;;24.58;3.60;;;;;;;;;;5075266;28;20026;-33
2024/02/06 12:42:38;;;;;;;22.07;3.40;;;;;;;;;;5074976;28;20471;-33
2024/02/06 12:45:04;;;;;;;26.27;3.73;;;;;;;;;;5075413;28;20251;-33
2024/02/06 12:47:30;;;;;;;23.60;3.30;;;;;;;;;;5074959;28;20722;-33
2024/02/06 12:49:55;;;;;;;25.80;3.70;;;;;;;;;;5074944;28;20032;-33
2024/02/06 12:52:20;;;;;;;17.77;3.35;;;;;;;;;;5075269;28;20125;-33
2024/02/06 12:54:45;;;;;;;30.67;4.10;;;;;;;;;;5074616;28;20410;-33
2024/02/06 12:57:13;;;;;;;20.60;3.92;;;;;;;;;;5074531;28;20020;-33
2024/02/06 12:59:38;;;;;;;25.75;3.70;;;;;;;;;;5074561;28;20017;-33
2024/02/06 13:02:05;;;;;;;24.42;3.75;;;;;;;;;;5074558;28;20027;-33
2024/02/06 13:04:30;;;;;;;26.80;3.92;;;;;;;;;;5074818;28;20076;-34
2024/02/06 13:06:56;;;;;;;26.92;4.63;;;;;;;;;;5074741;28;20039;-33
2024/02/06 13:09:30;;;;;;;22.92;3.90;;;;;;;;;;5074840;28;20051;-33
2024/02/06 13:11:55;;;;;;;22.20;4.20;;;;;;;;;;5074488;28;20054;-34
2024/02/06 13:14:20;;;;;;;27.27;4.30;;;;;;;;;;5074574;28;20016;-33
2024/02/06 13:16:49;;;;;;;20.88;3.83;;;;;;;;;;5074838;28;20013;-33
2024/02/06 13:19:19;;;;;;;33.35;4.55;;;;;;;;;;5074454;28;20024;-34
2024/02/06 13:21:46;;;;;;;26.85;4.03;;;;;;;;;;5074297;28;20514;-33
2024/02/06 13:24:12;;;;;;;32.63;4.45;;;;;;;;;;5074497;28;20031;-33
2024/02/06 13:26:40;;;;;;;30.43;4.10;;;;;;;;;;5074301;28;20395;-33
2024/02/06 13:29:05;;;;;;;20.70;3.67;;;;;;;;;;5074270;28;20263;-34
2024/02/06 13:31:31;;;;;;;31.23;4.28;;;;;;;;;;5074310;28;20062;-33
2024/02/06 13:33:57;;;;;;;28.17;4.40;;;;;;;;;;5073968;28;20021;-33
2024/02/06 13:36:22;;;;;;;27.07;4.00;;;;;;;;;;5073601;28;20070;-33
2024/02/06 13:38:47;;;;;;;30.90;4.20;;;;;;;;;;5074324;28;20331;-33
2024/02/06 13:41:12;;;;;;;27.23;4.23;;;;;;;;;;5074119;28;20247;-33
2024/02/06 13:43:37;;;;;;;24.13;4.22;;;;;;;;;;5074356;28;20243;-34
2024/02/06 13:46:02;;;;;;;25.98;4.38;;;;;;;;;;5074123;28;20032;-34
2024/02/06 13:48:28;;;;;;;28.40;4.22;;;;;;;;;;5073736;28;20073;-33
2024/02/06 13:50:54;;;;;;;25.65;4.03;;;;;;;;;;5073793;28;20054;-34
2024/02/06 13:53:19;;;;;;;30.50;4.35;;;;;;;;;;5073869;28;20027;-33
2024/02/06 13:55:44;;;;;;;25.88;4.32;;;;;;;;;;5073782;28;20012;-33
2024/02/06 13:58:09;;;;;;;23.23;4.07;;;;;;;;;;5073667;28;20012;-33
2024/02/06 14:00:35;;;;;;;22.50;4.23;;;;;;;;;;5073627;28;20287;-33
2024/02/06 14:03:01;;;;;;;22.02;4.07;;;;;;;;;;5072690;28;20025;-33
2024/02/06 14:05:26;;;;;;;38.53;4.20;;;;;;;;;;5072804;28;20080;-33
2024/02/06 14:07:51;;;;;;;28.83;4.50;;;;;;;;;;5073279;28;20375;-33
2024/02/06 14:10:16;;;;;;;24.02;3.80;;;;;;;;;;5072031;28;20028;-33
2024/02/06 14:12:42;;;;;;;31.70;4.93;;;;;;;;;;5072808;28;20370;-33
2024/02/06 14:15:07;;;;;;;27.87;4.10;;;;;;;;;;5072824;28;20340;-33
2024/02/06 14:17:32;;;;;;;25.38;4.18;;;;;;;;;;5073464;28;20487;-33
2024/02/06 14:19:57;;;;;;;28.38;4.05;;;;;;;;;;5073419;28;20095;-33
2024/02/06 14:22:22;;;;;;;29.63;3.90;;;;;;;;;;5072341;28;20013;-33